createdAt,value
2022-09-23T00:00:03.041Z,5.67
2022-09-23T00:02:31.055Z,5.80
2022-09-23T00:04:59.130Z,6.90
2022-09-23T00:07:28.608Z,6.40
2022-09-23T00:09:56.706Z,4.80
2022-09-23T00:12:24.670Z,6.40
2022-09-23T00:14:52.644Z,6.30
2022-09-23T00:17:20.541Z,6.70
2022-09-23T00:19:48.758Z,7.43
2022-09-23T00:22:16.927Z,5.80
2022-09-23T00:24:46.501Z,5.70
2022-09-23T00:27:14.745Z,5.50
2022-09-23T00:29:42.692Z,6.07
2022-09-23T00:32:10.983Z,5.20
2022-09-23T00:34:39.213Z,5.27
2022-09-23T00:37:07.484Z,5.23
2022-09-23T00:39:35.390Z,5.50
2022-09-23T00:42:04.896Z,4.77
2022-09-23T00:44:45.049Z,5.73
2022-09-23T00:47:17.989Z,8.40
2022-09-23T00:49:47.565Z,5.23
2022-09-23T00:52:19.353Z,7.63
2022-09-23T00:54:48.143Z,5.67
2022-09-23T00:57:19.946Z,6.57
2022-09-23T00:59:50.273Z,7.03
2022-09-23T01:02:21.006Z,6.53
2022-09-23T01:04:50.542Z,6.17
2022-09-23T01:07:18.685Z,6.33
2022-09-23T01:09:48.862Z,5.03
2022-09-23T01:12:31.860Z,6.27
2022-09-23T01:15:11.777Z,7.93
2022-09-23T01:17:47.505Z,13.07
2022-09-23T01:20:53.087Z,5.77
2022-09-23T01:23:53.928Z,6.63
2022-09-23T01:26:40.900Z,5.83
2022-09-23T01:29:33.290Z,6.07
2022-09-23T01:32:09.143Z,5.80
2022-09-23T01:34:44.244Z,5.97
2022-09-23T01:37:16.954Z,5.47
2022-09-23T01:39:52.459Z,7.17
2022-09-23T01:42:29.467Z,7.27
2022-09-23T01:45:00.972Z,4.87
2022-09-23T01:47:35.951Z,8.23
2022-09-23T01:50:27.621Z,5.00
2022-09-23T01:52:59.004Z,5.80
2022-09-23T01:55:31.256Z,6.10
2022-09-23T01:58:04.914Z,5.37
2022-09-23T02:00:40.672Z,7.23
2022-09-23T02:03:16.241Z,6.67
2022-09-23T02:05:48.558Z,5.10
2022-09-23T02:08:21.675Z,8.13
2022-09-23T02:10:54.104Z,6.23
2022-09-23T02:13:28.980Z,8.20
2022-09-23T02:16:02.266Z,5.50
2022-09-23T02:18:37.251Z,6.77
2022-09-23T02:21:09.780Z,7.47
2022-09-23T02:23:43.237Z,6.50
2022-09-23T02:26:20.123Z,6.37
2022-09-23T02:28:56.798Z,5.40
2022-09-23T02:31:33.021Z,7.00
2022-09-23T02:34:14.169Z,5.93
2022-09-23T02:36:50.120Z,9.30
2022-09-23T02:39:22.037Z,6.17
2022-09-23T02:41:56.737Z,5.80
2022-09-23T02:44:25.442Z,11.17
2022-09-23T02:46:53.429Z,7.13
2022-09-23T02:49:25.806Z,8.10
2022-09-23T02:51:54.569Z,5.37
2022-09-23T02:54:25.758Z,7.23
2022-09-23T02:56:53.995Z,6.97
2022-09-23T02:59:23.781Z,6.47
2022-09-23T03:02:07.072Z,6.27
2022-09-23T03:04:47.873Z,9.13
2022-09-23T03:07:20.253Z,10.97
2022-09-23T03:09:57.428Z,6.83
2022-09-23T03:12:35.928Z,6.43
2022-09-23T03:15:16.442Z,8.97
2022-09-23T03:17:50.849Z,5.30
2022-09-23T03:20:43.820Z,8.27
2022-09-23T03:23:15.046Z,8.77
2022-09-23T03:25:47.445Z,6.53
2022-09-23T03:28:17.508Z,7.80
2022-09-23T03:30:46.894Z,5.87
2022-09-23T03:33:16.928Z,5.67
2022-09-23T03:36:10.765Z,8.90
2022-09-23T03:38:43.133Z,5.30
2022-09-23T03:41:16.762Z,8.33
2022-09-23T03:43:45.624Z,4.63
2022-09-23T03:46:16.787Z,7.57
2022-09-23T03:48:45.466Z,5.13
2022-09-23T03:51:23.743Z,4.60
2022-09-23T03:53:52.065Z,7.37
2022-09-23T03:56:19.853Z,6.80
2022-09-23T03:58:48.842Z,8.83
2022-09-23T04:01:16.890Z,9.40
2022-09-23T04:03:44.862Z,17.37
2022-09-23T04:06:12.854Z,12.87
2022-09-23T04:08:42.242Z,9.93
2022-09-23T04:11:10.540Z,10.60
2022-09-23T04:13:43.204Z,7.73
2022-09-23T04:16:11.509Z,4.73
2022-09-23T04:18:39.469Z,7.53
2022-09-23T04:21:07.480Z,5.00
2022-09-23T04:23:35.389Z,6.43
2022-09-23T04:26:05.703Z,5.90
2022-09-23T04:28:34.245Z,6.40
2022-09-23T04:31:06.225Z,5.57
2022-09-23T04:33:34.320Z,5.23
2022-09-23T04:36:02.536Z,5.70
2022-09-23T04:38:30.723Z,8.53
2022-09-23T04:40:59.892Z,7.60
2022-09-23T04:43:29.098Z,8.37
2022-09-23T04:46:04.411Z,5.63
2022-09-23T04:48:33.321Z,6.07
2022-09-23T04:51:04.723Z,6.93
2022-09-23T04:53:33.139Z,8.17
2022-09-23T04:56:09.539Z,9.60
2022-09-23T04:58:42.385Z,4.80
2022-09-23T05:01:12.935Z,15.33
2022-09-23T05:03:43.669Z,12.67
2022-09-23T05:06:13.697Z,12.83
2022-09-23T05:08:42.573Z,8.10
2022-09-23T05:11:10.978Z,7.93
2022-09-23T05:13:40.451Z,6.53
2022-09-23T05:16:12.090Z,7.10
2022-09-23T05:18:42.879Z,6.50
2022-09-23T05:21:11.405Z,10.37
2022-09-23T05:23:41.447Z,6.57
2022-09-23T05:26:14.145Z,5.67
2022-09-23T05:31:51.510Z,14.83
2022-09-23T05:34:20.351Z,13.40
2022-09-23T05:36:52.099Z,11.10
2022-09-23T05:39:20.743Z,9.40
2022-09-23T05:41:49.276Z,12.17
2022-09-23T05:44:18.206Z,8.63
2022-09-23T05:46:50.679Z,7.57
2022-09-23T05:49:19.725Z,7.87
2022-09-23T05:51:47.725Z,7.10
2022-09-23T05:54:16.052Z,8.33
2022-09-23T05:56:44.065Z,8.40
2022-09-23T05:59:12.275Z,8.70
2022-09-23T06:01:56.491Z,6.07
2022-09-23T06:04:28.066Z,8.63
2022-09-23T06:07:03.331Z,7.97
2022-09-23T06:09:36.704Z,18.60
2022-09-23T06:12:07.533Z,14.47
2022-09-23T06:14:37.609Z,6.83
2022-09-23T06:20:04.028Z,6.30
2022-09-23T06:22:35.874Z,12.77
2022-09-23T06:25:08.243Z,7.03
2022-09-23T06:27:42.521Z,12.40
2022-09-23T06:30:14.597Z,9.93
2022-09-23T06:32:46.351Z,5.77
2022-09-23T06:35:26.273Z,4.67
2022-09-23T06:38:06.444Z,5.77
2022-09-23T06:40:46.453Z,8.33
2022-09-23T06:46:15.654Z,8.80
2022-09-23T06:48:46.311Z,9.13
2022-09-23T06:51:19.361Z,11.63
2022-09-23T06:53:48.763Z,10.00
2022-09-23T06:56:25.458Z,9.67
2022-09-23T06:58:56.538Z,7.63
2022-09-23T07:01:25.440Z,6.07
2022-09-23T07:04:01.903Z,5.77
2022-09-23T07:06:35.912Z,6.00
2022-09-23T07:09:05.365Z,7.50
2022-09-23T07:11:35.741Z,7.30
2022-09-23T07:14:04.157Z,9.03
2022-09-23T07:16:35.130Z,7.10
2022-09-23T07:19:05.588Z,5.00
2022-09-23T07:21:38.578Z,7.77
2022-09-23T07:24:20.260Z,9.23
2022-09-23T07:26:49.054Z,13.27
2022-09-23T07:29:18.133Z,12.10
2022-09-23T07:31:48.447Z,8.23
2022-09-23T07:34:16.893Z,11.33
2022-09-23T07:36:46.608Z,5.70
2022-09-23T07:39:15.558Z,7.37
2022-09-23T07:41:44.783Z,6.63
2022-09-23T07:44:14.971Z,9.40
2022-09-23T07:49:44.373Z,11.33
2022-09-23T07:52:17.337Z,7.70
2022-09-23T07:54:48.179Z,12.07
2022-09-23T07:57:17.302Z,7.80
2022-09-23T07:59:46.531Z,4.47
2022-09-23T08:02:20.943Z,4.20
2022-09-23T08:04:54.777Z,3.67
2022-09-23T08:07:31.651Z,6.97
2022-09-23T08:10:13.918Z,4.57
2022-09-23T08:12:58.990Z,5.23
2022-09-23T08:15:28.444Z,4.60
2022-09-23T08:18:01.571Z,11.50
2022-09-23T08:20:48.131Z,5.73
2022-09-23T08:23:20.439Z,5.43
2022-09-23T08:25:49.334Z,7.27
2022-09-23T08:28:20.112Z,4.23
2022-09-23T08:30:50.810Z,6.97
2022-09-23T08:33:23.113Z,5.90
2022-09-23T08:35:52.067Z,5.83
2022-09-23T08:38:22.558Z,3.97
2022-09-23T08:40:51.902Z,4.17
2022-09-23T08:43:31.327Z,5.40
2022-09-23T08:46:05.421Z,6.90
2022-09-23T08:48:38.638Z,6.03
2022-09-23T08:51:09.480Z,4.47
2022-09-23T08:53:40.409Z,4.23
2022-09-23T08:56:14.333Z,7.93
2022-09-23T08:58:51.004Z,5.57
2022-09-23T09:01:27.469Z,3.27
2022-09-23T09:03:58.100Z,3.63
2022-09-23T09:06:32.579Z,5.63
2022-09-23T09:09:04.279Z,3.00
2022-09-23T09:11:37.997Z,3.80
2022-09-23T09:14:17.198Z,3.23
2022-09-23T09:17:00.428Z,4.27
2022-09-23T09:19:47.463Z,6.50
2022-09-23T09:22:21.983Z,3.47
2022-09-23T09:25:45.393Z,5.67
2022-09-23T09:28:23.348Z,3.87
2022-09-23T09:30:57.751Z,5.63
2022-09-23T09:33:32.397Z,8.73
2022-09-23T09:42:04.894Z,5.90
2022-09-23T09:44:41.463Z,6.23
2022-09-23T09:47:27.253Z,5.77
2022-09-23T09:50:00.873Z,6.80
2022-09-23T09:52:40.250Z,7.90
2022-09-23T09:55:37.144Z,8.13
2022-09-23T09:58:06.965Z,5.03
2022-09-23T10:00:44.766Z,5.53
2022-09-23T10:05:57.710Z,7.50
2022-09-23T10:11:31.803Z,5.77
2022-09-23T10:14:22.637Z,5.73
2022-09-23T10:17:05.779Z,4.30
2022-09-23T10:19:35.736Z,4.30
2022-09-23T10:22:11.623Z,3.57
2022-09-23T10:24:48.393Z,4.27
2022-09-23T10:27:17.213Z,5.00
2022-09-23T10:29:51.702Z,8.43
2022-09-23T10:33:04.239Z,8.83
2022-09-23T10:36:11.943Z,5.73
2022-09-23T10:50:25.080Z,3.97
2022-09-23T10:53:07.911Z,3.10
2022-09-23T10:55:44.173Z,3.73
2022-09-23T10:58:43.611Z,4.80
2022-09-23T11:09:40.742Z,3.40
2022-09-23T11:12:20.233Z,4.43
2022-09-23T11:15:12.405Z,2.50
2022-09-23T11:18:08.892Z,2.90
2022-09-23T11:21:01.116Z,3.53
2022-09-23T11:23:51.207Z,3.67
2022-09-23T11:26:58.457Z,3.03
2022-09-23T11:30:02.847Z,3.20
2022-09-23T11:33:33.692Z,4.10
2022-09-23T11:36:21.933Z,2.73
2022-09-23T11:39:11.433Z,2.97
2022-09-23T11:41:48.327Z,3.47
2022-09-23T11:44:23.846Z,3.20
2022-09-23T11:47:00.475Z,3.40
2022-09-23T11:49:35.575Z,2.77
2022-09-23T11:52:10.254Z,5.80
2022-09-23T11:54:47.483Z,2.93
2022-09-23T11:57:39.904Z,3.77
2022-09-23T12:00:19.659Z,3.10
2022-09-23T12:03:10.078Z,2.73
2022-09-23T12:05:44.906Z,3.93
2022-09-23T12:08:30.695Z,3.77
2022-09-23T12:11:08.737Z,3.73
2022-09-23T12:13:56.893Z,4.33
2022-09-23T12:21:22.398Z,5.60
2022-09-23T12:25:14.702Z,3.83
2022-09-23T12:28:12.077Z,6.83
2022-09-23T12:35:23.790Z,4.30
2022-09-23T12:41:56.123Z,5.60
2022-09-23T12:44:36.012Z,6.77
2022-09-23T12:47:51.952Z,4.83
2022-09-23T12:57:51.205Z,7.07
2022-09-23T13:03:46.024Z,4.17
2022-09-23T13:06:33.782Z,3.17
2022-09-23T13:09:02.984Z,4.93
2022-09-23T13:11:58.220Z,3.87
2022-09-23T13:17:50.203Z,5.40
2022-09-23T13:20:39.410Z,6.17
2022-09-23T13:27:50.243Z,5.13
2022-09-23T13:33:58.642Z,4.80
2022-09-23T13:36:27.034Z,6.37
2022-09-23T13:39:15.878Z,4.90
2022-09-23T13:41:45.177Z,4.83
2022-09-23T13:44:19.740Z,4.03
2022-09-23T13:46:54.240Z,4.33
2022-09-23T13:49:26.710Z,5.97
2022-09-23T13:54:56.121Z,4.80
2022-09-23T13:57:29.281Z,4.50
2022-09-23T14:00:02.405Z,5.77
2022-09-23T14:02:30.664Z,3.53
2022-09-23T14:05:00.124Z,4.50
2022-09-23T14:07:35.387Z,7.50
2022-09-23T14:10:08.059Z,4.93
2022-09-23T14:12:40.014Z,5.53
2022-09-23T14:15:15.291Z,8.53
2022-09-23T14:17:47.601Z,4.43
2022-09-23T14:20:18.952Z,3.90
2022-09-23T14:22:48.202Z,6.97
2022-09-23T14:25:19.145Z,4.47
2022-09-23T14:27:48.312Z,4.33
2022-09-23T14:30:18.783Z,4.67
2022-09-23T14:32:48.075Z,4.60
2022-09-23T14:35:23.388Z,10.23
2022-09-23T14:38:11.191Z,10.97
2022-09-23T14:40:50.908Z,3.67
2022-09-23T14:43:25.115Z,6.07
2022-09-23T14:45:56.355Z,3.23
2022-09-23T14:48:26.574Z,4.03
2022-09-23T14:51:00.385Z,5.83
2022-09-23T14:53:35.617Z,4.87
2022-09-23T14:56:19.385Z,4.03
2022-09-23T14:58:52.845Z,5.10
2022-09-23T15:01:40.010Z,4.63
2022-09-23T15:04:17.257Z,4.07
2022-09-23T15:06:52.268Z,5.67
2022-09-23T15:09:26.957Z,5.47
2022-09-23T15:11:59.191Z,5.47
2022-09-23T15:14:38.353Z,3.60
2022-09-23T15:17:16.027Z,4.30
2022-09-23T15:19:45.000Z,8.40
2022-09-23T15:22:16.653Z,6.03
2022-09-23T15:24:46.574Z,3.47
2022-09-23T15:27:33.532Z,6.53
2022-09-23T15:30:12.658Z,6.53
2022-09-23T15:32:43.516Z,6.00
2022-09-23T15:35:15.974Z,4.13
2022-09-23T15:37:47.086Z,5.60
2022-09-23T15:40:22.663Z,4.00
2022-09-23T15:42:52.869Z,6.23
2022-09-23T15:45:27.499Z,6.87
2022-09-23T15:47:58.672Z,9.10
2022-09-23T15:50:27.112Z,6.00
2022-09-23T15:52:56.766Z,5.67
2022-09-23T15:55:25.211Z,5.43
2022-09-23T15:57:53.539Z,3.13
2022-09-23T16:00:21.592Z,4.57
2022-09-23T16:02:51.586Z,4.70
2022-09-23T16:05:32.764Z,5.00
2022-09-23T16:08:08.519Z,7.70
2022-09-23T16:10:41.835Z,5.27
2022-09-23T16:13:15.963Z,5.13
2022-09-23T16:15:47.658Z,3.50
2022-09-23T16:18:18.214Z,5.87
2022-09-23T16:20:49.746Z,6.10
2022-09-23T16:23:37.356Z,8.60
2022-09-23T16:26:10.350Z,7.37
2022-09-23T16:28:43.310Z,6.70
2022-09-23T16:31:18.147Z,4.37
2022-09-23T16:33:49.551Z,5.23
2022-09-23T16:36:23.303Z,5.17
2022-09-23T16:38:56.949Z,5.37
2022-09-23T16:41:26.629Z,5.27
2022-09-23T16:43:55.582Z,8.20
2022-09-23T16:46:25.065Z,7.50
2022-09-23T16:48:53.864Z,6.93
2022-09-23T16:51:23.805Z,4.17
2022-09-23T16:53:54.032Z,5.63
2022-09-23T16:56:28.267Z,8.03
2022-09-23T16:58:59.533Z,4.40
2022-09-23T17:01:46.778Z,5.33
2022-09-23T17:04:16.752Z,8.20
2022-09-23T17:10:32.913Z,11.30
2022-09-23T17:13:03.675Z,13.37
2022-09-23T17:15:32.160Z,16.57
2022-09-23T17:18:02.908Z,12.50
2022-09-23T17:20:36.388Z,10.03
2022-09-23T17:23:07.963Z,7.43
2022-09-23T17:25:37.137Z,11.87
2022-09-23T17:28:11.009Z,7.60
2022-09-23T17:30:43.480Z,6.23
2022-09-23T17:33:12.807Z,6.63
2022-09-23T17:35:44.272Z,5.40
2022-09-23T17:38:14.084Z,8.47
2022-09-23T17:40:51.822Z,6.90
2022-09-23T17:43:26.883Z,10.10
2022-09-23T17:45:59.730Z,6.07
2022-09-23T17:48:28.207Z,12.60
2022-09-23T17:50:57.029Z,22.30
2022-09-23T17:53:26.009Z,10.27
2022-09-23T17:55:58.648Z,8.73
2022-09-23T17:58:30.897Z,8.17
2022-09-23T18:01:01.640Z,17.23
2022-09-23T18:03:32.133Z,16.60
2022-09-23T18:06:08.144Z,6.33
2022-09-23T18:08:36.657Z,10.93
2022-09-23T18:11:12.952Z,12.30
2022-09-23T18:13:42.866Z,8.17
2022-09-23T18:16:11.096Z,12.07
2022-09-23T18:18:39.560Z,20.93
2022-09-23T18:21:08.001Z,18.80
2022-09-23T18:23:37.748Z,11.77
2022-09-23T18:26:13.780Z,15.80
2022-09-23T18:28:46.733Z,19.47
2022-09-23T18:31:17.502Z,12.97
2022-09-23T18:33:51.218Z,11.83
2022-09-23T18:36:21.648Z,11.70
2022-09-23T18:54:55.438Z,24.43
2022-09-23T18:57:24.300Z,21.57
2022-09-23T18:59:55.594Z,14.70
2022-09-23T19:05:33.677Z,11.83
2022-09-23T19:08:04.477Z,19.63
2022-09-23T19:10:36.309Z,13.97
2022-09-23T19:13:08.518Z,18.60
2022-09-23T19:15:42.391Z,15.33
2022-09-23T19:18:10.876Z,10.80
2022-09-23T19:20:40.728Z,10.03
2022-09-23T19:23:10.298Z,11.67
2022-09-23T19:25:46.530Z,8.40
2022-09-23T19:28:15.096Z,12.07
2022-09-23T19:30:43.938Z,16.07
2022-09-23T19:33:12.929Z,9.97
2022-09-23T19:35:48.776Z,11.70
2022-09-23T19:38:20.948Z,10.60
2022-09-23T19:40:52.492Z,18.57
2022-09-23T19:43:25.751Z,18.17
2022-09-23T19:45:55.809Z,8.60
2022-09-23T19:48:24.823Z,8.67
2022-09-23T19:50:56.457Z,17.50
2022-09-23T19:53:28.135Z,11.73
2022-09-23T19:55:58.882Z,7.83
2022-09-23T19:58:27.662Z,11.23
2022-09-23T20:00:58.086Z,14.47
2022-09-23T20:03:28.162Z,10.27
2022-09-23T20:05:58.070Z,10.93
2022-09-23T20:08:27.984Z,7.57
2022-09-23T20:10:58.056Z,10.93
2022-09-23T20:13:34.074Z,11.50
2022-09-23T20:16:06.590Z,11.10
2022-09-23T20:18:35.093Z,9.10
2022-09-23T20:21:03.628Z,11.10
2022-09-23T20:23:32.187Z,10.00
2022-09-23T20:26:21.022Z,9.77
2022-09-23T20:28:50.973Z,13.17
2022-09-23T20:31:21.385Z,11.97
2022-09-23T20:33:56.300Z,7.30
2022-09-23T20:36:25.737Z,7.87
2022-09-23T20:38:55.855Z,9.70
2022-09-23T20:41:25.911Z,8.73
2022-09-23T20:43:55.541Z,14.27
2022-09-23T20:49:08.915Z,10.50
2022-09-23T20:51:38.056Z,9.83
2022-09-23T20:54:08.000Z,11.53
2022-09-23T20:56:46.962Z,17.83
2022-09-23T20:59:17.856Z,10.07
2022-09-23T21:01:48.223Z,10.70
2022-09-23T21:04:18.060Z,12.00
2022-09-23T21:06:46.799Z,9.50
2022-09-23T21:09:15.287Z,10.90
2022-09-23T21:11:46.782Z,7.93
2022-09-23T21:14:16.971Z,9.17
2022-09-23T21:19:22.781Z,8.23
2022-09-23T21:21:50.934Z,8.73
2022-09-23T21:25:00.385Z,7.70
2022-09-23T21:27:14.179Z,7.40
2022-09-23T21:29:51.400Z,9.53
2022-09-23T21:32:19.836Z,13.90
2022-09-23T21:34:48.328Z,10.90
2022-09-23T21:37:16.322Z,8.60
2022-09-23T21:40:04.932Z,9.10
2022-09-23T21:42:35.272Z,8.90
2022-09-23T21:45:04.288Z,7.40
2022-09-23T21:47:33.184Z,16.83
2022-09-23T21:50:01.530Z,7.63
2022-09-23T21:52:36.905Z,7.13
2022-09-23T21:55:05.359Z,11.83
2022-09-23T21:57:35.148Z,8.93
2022-09-23T22:00:04.028Z,9.37
2022-09-23T22:02:32.469Z,10.37
2022-09-23T22:05:00.819Z,10.90
2022-09-23T22:07:29.180Z,8.30
2022-09-23T22:09:57.808Z,12.37
2022-09-23T22:12:26.157Z,8.77
2022-09-23T22:14:55.906Z,8.10
2022-09-23T22:17:24.227Z,7.87
2022-09-23T22:19:52.603Z,7.70
2022-09-23T22:22:20.596Z,9.17
2022-09-23T22:24:49.250Z,7.70
2022-09-23T22:27:19.430Z,8.73
2022-09-23T22:30:05.230Z,8.60
2022-09-23T22:32:41.665Z,7.93
2022-09-23T22:35:11.983Z,8.60
2022-09-23T22:37:40.292Z,9.33
2022-09-23T22:40:10.739Z,8.50
2022-09-23T22:42:39.404Z,8.63
2022-09-23T22:45:08.522Z,10.10
2022-09-23T22:47:39.823Z,8.50
2022-09-23T22:50:10.517Z,10.70
2022-09-23T22:52:39.369Z,7.60
2022-09-23T22:55:08.451Z,9.00
2022-09-23T22:57:36.894Z,10.73
2022-09-23T23:00:06.175Z,10.93
2022-09-23T23:02:34.517Z,7.87
2022-09-23T23:05:04.087Z,10.13
2022-09-23T23:07:33.090Z,8.33
2022-09-23T23:10:01.905Z,10.53
2022-09-23T23:12:30.056Z,8.77
2022-09-23T23:14:58.424Z,10.10
2022-09-23T23:17:26.778Z,8.33
2022-09-23T23:19:55.066Z,6.77
2022-09-23T23:22:28.375Z,7.17
2022-09-23T23:24:56.704Z,7.50
2022-09-23T23:27:24.745Z,6.70
2022-09-23T23:29:53.075Z,9.43
2022-09-23T23:32:21.480Z,6.67
2022-09-23T23:34:49.735Z,9.40
2022-09-23T23:37:20.955Z,6.57
2022-09-23T23:39:51.439Z,7.77
2022-09-23T23:42:20.310Z,20.67
2022-09-23T23:44:48.898Z,7.53
2022-09-23T23:47:17.216Z,6.27
2022-09-23T23:49:45.170Z,7.97
2022-09-23T23:52:13.399Z,8.37
2022-09-23T23:54:41.720Z,5.90
2022-09-23T23:57:11.211Z,7.87
2022-09-23T23:59:39.299Z,8.13
